sensor_id;sensor_type;location;lat;lon;timestamp;pressure;altitude;pressure_sealevel;temperature;humidity
72640;BME280;60683;51.730;8.762;2023-07-20T00:00:23;100115.91;;;15.45;89.96
72640;BME280;60683;51.730;8.762;2023-07-20T00:03:11;100103.16;;;15.40;90.98
72640;BME280;60683;51.730;8.762;2023-07-20T00:05:42;100108.56;;;15.40;90.83
72640;BME280;60683;51.730;8.762;2023-07-20T00:08:10;100112.38;;;15.39;91.48
72640;BME280;60683;51.730;8.762;2023-07-20T00:10:40;100108.47;;;15.20;91.04
72640;BME280;60683;51.730;8.762;2023-07-20T00:13:08;100102.53;;;15.18;91.13
72640;BME280;60683;51.730;8.762;2023-07-20T00:15:35;100111.75;;;15.27;91.56
72640;BME280;60683;51.730;8.762;2023-07-20T00:18:04;100119.56;;;15.18;91.61
72640;BME280;60683;51.730;8.762;2023-07-20T00:20:31;100116.78;;;14.98;91.72
72640;BME280;60683;51.730;8.762;2023-07-20T00:22:58;100105.72;;;15.05;92.33
72640;BME280;60683;51.730;8.762;2023-07-20T00:25:26;100112.19;;;14.99;92.36
72640;BME280;60683;51.730;8.762;2023-07-20T00:27:55;100111.41;;;15.08;92.70
72640;BME280;60683;51.730;8.762;2023-07-20T00:30:22;100110.63;;;15.13;92.51
72640;BME280;60683;51.730;8.762;2023-07-20T00:32:50;100105.75;;;15.15;92.91
72640;BME280;60683;51.730;8.762;2023-07-20T00:35:18;100108.44;;;15.10;93.09
72640;BME280;60683;51.730;8.762;2023-07-20T00:37:46;100102.19;;;15.09;92.96
72640;BME280;60683;51.730;8.762;2023-07-20T00:40:13;100100.34;;;15.15;93.21
72640;BME280;60683;51.730;8.762;2023-07-20T00:42:41;100109.00;;;15.07;93.04
72640;BME280;60683;51.730;8.762;2023-07-20T00:45:10;100099.75;;;15.08;93.05
72640;BME280;60683;51.730;8.762;2023-07-20T00:47:38;100108.97;;;15.02;93.35
72640;BME280;60683;51.730;8.762;2023-07-20T00:50:06;100106.81;;;15.09;93.26
72640;BME280;60683;51.730;8.762;2023-07-20T00:52:35;100108.41;;;15.00;93.08
72640;BME280;60683;51.730;8.762;2023-07-20T00:55:06;100095.72;;;15.10;93.18
72640;BME280;60683;51.730;8.762;2023-07-20T00:57:34;100101.69;;;15.17;93.26
72640;BME280;60683;51.730;8.762;2023-07-20T01:00:02;100101.41;;;15.14;92.88
72640;BME280;60683;51.730;8.762;2023-07-20T01:02:33;100100.88;;;15.17;93.17
72640;BME280;60683;51.730;8.762;2023-07-20T01:05:01;100106.84;;;15.14;93.04
72640;BME280;60683;51.730;8.762;2023-07-20T01:07:32;100094.94;;;15.20;93.04
72640;BME280;60683;51.730;8.762;2023-07-20T01:10:07;100105.22;;;15.18;93.21
72640;BME280;60683;51.730;8.762;2023-07-20T01:12:41;100101.44;;;15.19;93.76
72640;BME280;60683;51.730;8.762;2023-07-20T01:15:09;100097.09;;;15.18;93.77
72640;BME280;60683;51.730;8.762;2023-07-20T01:17:38;100095.50;;;15.22;93.51
72640;BME280;60683;51.730;8.762;2023-07-20T01:20:07;100095.53;;;15.27;93.39
72640;BME280;60683;51.730;8.762;2023-07-20T01:22:51;100094.41;;;15.18;93.55
72640;BME280;60683;51.730;8.762;2023-07-20T01:25:34;100096.03;;;15.24;93.83
72640;BME280;60683;51.730;8.762;2023-07-20T01:28:35;100098.78;;;15.29;94.20
72640;BME280;60683;51.730;8.762;2023-07-20T01:31:24;100102.06;;;15.36;93.76
72640;BME280;60683;51.730;8.762;2023-07-20T01:33:55;100095.00;;;15.30;93.58
72640;BME280;60683;51.730;8.762;2023-07-20T01:36:24;100093.38;;;15.34;94.11
72640;BME280;60683;51.730;8.762;2023-07-20T01:38:54;100090.66;;;15.34;93.87
72640;BME280;60683;51.730;8.762;2023-07-20T01:41:23;100095.81;;;15.36;94.18
72640;BME280;60683;51.730;8.762;2023-07-20T01:43:51;100099.88;;;15.33;93.75
72640;BME280;60683;51.730;8.762;2023-07-20T01:46:18;100097.16;;;15.33;93.86
72640;BME280;60683;51.730;8.762;2023-07-20T01:48:48;100097.72;;;15.35;93.84
72640;BME280;60683;51.730;8.762;2023-07-20T01:51:16;100099.31;;;15.31;93.91
72640;BME280;60683;51.730;8.762;2023-07-20T01:53:44;100094.47;;;15.38;94.09
72640;BME280;60683;51.730;8.762;2023-07-20T01:56:11;100098.78;;;15.34;93.82
72640;BME280;60683;51.730;8.762;2023-07-20T01:58:39;100102.31;;;15.35;93.96
72640;BME280;60683;51.730;8.762;2023-07-20T02:01:07;100095.50;;;15.22;93.88
72640;BME280;60683;51.730;8.762;2023-07-20T02:03:35;100096.03;;;15.24;93.83
72640;BME280;60683;51.730;8.762;2023-07-20T02:06:06;100092.78;;;15.22;93.76
72640;BME280;60683;51.730;8.762;2023-07-20T02:08:34;100089.53;;;15.20;93.58
72640;BME280;60683;51.730;8.762;2023-07-20T02:11:02;100082.44;;;15.09;93.62
72640;BME280;60683;51.730;8.762;2023-07-20T02:13:30;100086.78;;;15.05;93.67
72640;BME280;60683;51.730;8.762;2023-07-20T02:15:58;100084.84;;;14.95;93.60
72640;BME280;60683;51.730;8.762;2023-07-20T02:18:25;100090.00;;;15.02;94.11
72640;BME280;60683;51.730;8.762;2023-07-20T02:20:53;100082.19;;;15.05;93.93
72640;BME280;60683;51.730;8.762;2023-07-20T02:23:23;100094.91;;;15.05;93.91
72640;BME280;60683;51.730;8.762;2023-07-20T02:25:51;100088.41;;;15.11;93.75
72640;BME280;60683;51.730;8.762;2023-07-20T02:28:18;100099.75;;;15.08;93.97
72640;BME280;60683;51.730;8.762;2023-07-20T02:30:45;100091.13;;;15.16;93.85
72640;BME280;60683;51.730;8.762;2023-07-20T02:33:15;100092.22;;;15.15;93.73
72640;BME280;60683;51.730;8.762;2023-07-20T02:35:43;100086.81;;;15.20;93.55
72640;BME280;60683;51.730;8.762;2023-07-20T02:38:11;100086.28;;;15.18;93.30
72640;BME280;60683;51.730;8.762;2023-07-20T02:40:40;100088.19;;;15.22;93.43
72640;BME280;60683;51.730;8.762;2023-07-20T02:43:08;100089.25;;;15.21;93.05
72640;BME280;60683;51.730;8.762;2023-07-20T02:45:35;100086.00;;;15.19;93.04
72640;BME280;60683;51.730;8.762;2023-07-20T02:48:07;100088.72;;;15.19;93.09
72640;BME280;60683;51.730;8.762;2023-07-20T02:50:35;100090.09;;;15.22;93.49
72640;BME280;60683;51.730;8.762;2023-07-20T02:53:02;100081.13;;;15.16;93.42
72640;BME280;60683;51.730;8.762;2023-07-20T02:55:30;100092.75;;;15.17;93.74
72640;BME280;60683;51.730;8.762;2023-07-20T02:57:59;100096.53;;;15.06;93.73
72640;BME280;60683;51.730;8.762;2023-07-20T03:00:26;100087.84;;;15.04;93.71
72640;BME280;60683;51.730;8.762;2023-07-20T03:02:54;100090.59;;;15.14;93.82
72640;BME280;60683;51.730;8.762;2023-07-20T03:05:22;100097.59;;;15.10;93.50
72640;BME280;60683;51.730;8.762;2023-07-20T03:07:51;100090.84;;;15.07;93.79
72640;BME280;60683;51.730;8.762;2023-07-20T03:10:19;100091.38;;;15.04;93.93
72640;BME280;60683;51.730;8.762;2023-07-20T03:12:46;100090.28;;;15.10;93.49
72640;BME280;60683;51.730;8.762;2023-07-20T03:15:15;100090.00;;;15.02;93.81
72640;BME280;60683;51.730;8.762;2023-07-20T03:17:42;100094.63;;;15.06;94.11
72640;BME280;60683;51.730;8.762;2023-07-20T03:20:11;100088.13;;;15.12;94.02
72640;BME280;60683;51.730;8.762;2023-07-20T03:22:39;100084.06;;;15.05;94.15
72640;BME280;60683;51.730;8.762;2023-07-20T03:25:07;100082.19;;;15.10;93.99
72640;BME280;60683;51.730;8.762;2023-07-20T03:27:35;100081.13;;;15.16;93.93
72640;BME280;60683;51.730;8.762;2023-07-20T03:30:03;100088.41;;;15.11;93.85
72640;BME280;60683;51.730;8.762;2023-07-20T03:32:34;100086.25;;;15.13;93.95
72640;BME280;60683;51.730;8.762;2023-07-20T03:35:01;100078.91;;;15.08;94.16
72640;BME280;60683;51.730;8.762;2023-07-20T03:37:30;100090.03;;;15.12;94.38
72640;BME280;60683;51.730;8.762;2023-07-20T03:39:57;100084.63;;;15.12;94.04
72640;BME280;60683;51.730;8.762;2023-07-20T03:42:26;100091.13;;;15.16;94.21
72640;BME280;60683;51.730;8.762;2023-07-20T03:44:54;100094.41;;;15.18;94.29
72640;BME280;60683;51.730;8.762;2023-07-20T03:47:22;100088.16;;;15.17;94.34
72640;BME280;60683;51.730;8.762;2023-07-20T03:49:51;100089.56;;;15.25;94.29
72640;BME280;60683;51.730;8.762;2023-07-20T03:52:19;100080.63;;;15.24;94.23
72640;BME280;60683;51.730;8.762;2023-07-20T03:54:46;100083.06;;;15.26;93.67
72640;BME280;60683;51.730;8.762;2023-07-20T03:57:14;100084.72;;;15.32;93.25
72640;BME280;60683;51.730;8.762;2023-07-20T03:59:45;100076.56;;;15.32;93.27
72640;BME280;60683;51.730;8.762;2023-07-20T04:02:13;100078.72;;;15.25;93.43
72640;BME280;60683;51.730;8.762;2023-07-20T04:04:40;100082.78;;;15.28;93.28
72640;BME280;60683;51.730;8.762;2023-07-20T04:07:09;100082.78;;;15.28;93.22
72640;BME280;60683;51.730;8.762;2023-07-20T04:09:37;100085.22;;;15.24;93.34
72640;BME280;60683;51.730;8.762;2023-07-20T04:12:05;100093.06;;;15.20;93.65
72640;BME280;60683;51.730;8.762;2023-07-20T04:14:33;100104.66;;;15.11;94.11
72640;BME280;60683;51.730;8.762;2023-07-20T04:17:01;100115.19;;;15.02;94.81
72640;BME280;60683;51.730;8.762;2023-07-20T04:19:28;100104.56;;;14.90;95.24
72640;BME280;60683;51.730;8.762;2023-07-20T04:21:55;100108.25;;;14.74;95.67
72640;BME280;60683;51.730;8.762;2023-07-20T04:24:24;100106.59;;;14.68;95.24
72640;BME280;60683;51.730;8.762;2023-07-20T04:26:52;100111.94;;;14.58;94.78
72640;BME280;60683;51.730;8.762;2023-07-20T04:29:19;100105.19;;;14.55;95.08
72640;BME280;60683;51.730;8.762;2023-07-20T04:31:47;100114.63;;;14.58;95.01
72640;BME280;60683;51.730;8.762;2023-07-20T04:34:15;100119.22;;;14.57;95.17
72640;BME280;60683;51.730;8.762;2023-07-20T04:36:42;100120.59;;;14.60;95.18
72640;BME280;60683;51.730;8.762;2023-07-20T04:39:10;100120.31;;;14.56;95.29
72640;BME280;60683;51.730;8.762;2023-07-20T04:41:39;100120.09;;;14.63;95.36
72640;BME280;60683;51.730;8.762;2023-07-20T04:44:07;100119.34;;;14.73;95.52
72640;BME280;60683;51.730;8.762;2023-07-20T04:46:35;100123.94;;;14.72;95.32
72640;BME280;60683;51.730;8.762;2023-07-20T04:49:03;100123.41;;;14.75;95.55
72640;BME280;60683;51.730;8.762;2023-07-20T04:51:31;100125.34;;;14.80;95.16
72640;BME280;60683;51.730;8.762;2023-07-20T04:53:58;100122.97;;;14.88;94.77
72640;BME280;60683;51.730;8.762;2023-07-20T04:56:26;100127.81;;;14.86;94.85
72640;BME280;60683;51.730;8.762;2023-07-20T04:58:55;100133.28;;;14.97;94.44
72640;BME280;60683;51.730;8.762;2023-07-20T05:01:23;100127.09;;;15.01;94.54
72640;BME280;60683;51.730;8.762;2023-07-20T05:03:52;100134.94;;;14.98;94.29
72640;BME280;60683;51.730;8.762;2023-07-20T05:06:20;100129.50;;;14.98;94.65
72640;BME280;60683;51.730;8.762;2023-07-20T05:08:48;100135.19;;;14.96;94.80
72640;BME280;60683;51.730;8.762;2023-07-20T05:11:16;100134.13;;;15.02;94.60
72640;BME280;60683;51.730;8.762;2023-07-20T05:13:43;100139.00;;;15.00;94.67
72640;BME280;60683;51.730;8.762;2023-07-20T05:16:12;100138.69;;;14.92;94.04
72640;BME280;60683;51.730;8.762;2023-07-20T05:18:40;100147.91;;;14.96;94.37
72640;BME280;60683;51.730;8.762;2023-07-20T05:21:07;100141.13;;;14.93;94.04
72640;BME280;60683;51.730;8.762;2023-07-20T05:23:34;100143.78;;;14.88;94.20
72640;BME280;60683;51.730;8.762;2023-07-20T05:26:02;100147.66;;;14.97;94.53
72640;BME280;60683;51.730;8.762;2023-07-20T05:28:30;100140.88;;;14.95;94.41
72640;BME280;60683;51.730;8.762;2023-07-20T05:30:57;100135.75;;;14.98;94.40
72640;BME280;60683;51.730;8.762;2023-07-20T05:33:26;100139.50;;;14.92;94.15
72640;BME280;60683;51.730;8.762;2023-07-20T05:35:54;100137.13;;;15.01;93.85
72640;BME280;60683;51.730;8.762;2023-07-20T05:38:22;100141.75;;;15.05;93.64
72640;BME280;60683;51.730;8.762;2023-07-20T05:40:50;100134.44;;;15.06;93.97
72640;BME280;60683;51.730;8.762;2023-07-20T05:43:17;100140.91;;;15.10;94.11
72640;BME280;60683;51.730;8.762;2023-07-20T05:45:45;100155.97;;;14.85;93.03
72640;BME280;60683;51.730;8.762;2023-07-20T05:48:13;100162.94;;;14.76;91.96
72640;BME280;60683;51.730;8.762;2023-07-20T05:50:44;100174.72;;;14.60;91.11
72640;BME280;60683;51.730;8.762;2023-07-20T05:53:12;100169.75;;;14.47;90.72
72640;BME280;60683;51.730;8.762;2023-07-20T05:55:39;100182.41;;;14.41;91.21
72640;BME280;60683;51.730;8.762;2023-07-20T05:58:07;100187.38;;;14.49;91.50
72640;BME280;60683;51.730;8.762;2023-07-20T06:00:34;100185.44;;;14.45;90.43
72640;BME280;60683;51.730;8.762;2023-07-20T06:03:02;100174.09;;;14.48;90.36
72640;BME280;60683;51.730;8.762;2023-07-20T06:05:29;100177.16;;;14.62;90.04
72640;BME280;60683;51.730;8.762;2023-07-20T06:07:58;100180.94;;;14.61;89.91
72640;BME280;60683;51.730;8.762;2023-07-20T06:10:26;100173.06;;;14.59;90.09
72640;BME280;60683;51.730;8.762;2023-07-20T06:12:54;100173.59;;;14.51;88.72
72640;BME280;60683;51.730;8.762;2023-07-20T06:15:26;100193.09;;;14.58;89.68
72640;BME280;60683;51.730;8.762;2023-07-20T06:17:54;100193.09;;;14.58;89.63
72640;BME280;60683;51.730;8.762;2023-07-20T06:20:24;100192.41;;;14.73;89.64
72640;BME280;60683;51.730;8.762;2023-07-20T06:22:51;100201.84;;;14.70;88.62
72640;BME280;60683;51.730;8.762;2023-07-20T06:25:20;100196.56;;;14.85;88.27
72640;BME280;60683;51.730;8.762;2023-07-20T06:27:49;100195.81;;;14.95;88.13
72640;BME280;60683;51.730;8.762;2023-07-20T06:30:17;100199.94;;;15.03;88.15
72640;BME280;60683;51.730;8.762;2023-07-20T06:32:44;100191.22;;;14.96;86.83
72640;BME280;60683;51.730;8.762;2023-07-20T06:35:12;100194.81;;;15.11;87.35
72640;BME280;60683;51.730;8.762;2023-07-20T06:37:39;100200.66;;;15.35;85.92
72640;BME280;60683;51.730;8.762;2023-07-20T06:40:13;100194.63;;;15.80;86.66
72640;BME280;60683;51.730;8.762;2023-07-20T06:42:42;100186.56;;;16.16;86.04
72640;BME280;60683;51.730;8.762;2023-07-20T06:45:09;100196.63;;;16.36;85.16
72640;BME280;60683;51.730;8.762;2023-07-20T06:47:38;100204.50;;;16.37;83.54
72640;BME280;60683;51.730;8.762;2023-07-20T06:50:06;100196.38;;;16.47;81.83
72640;BME280;60683;51.730;8.762;2023-07-20T06:52:34;100196.88;;;16.09;83.10
72640;BME280;60683;51.730;8.762;2023-07-20T06:55:01;100205.28;;;16.07;84.21
72640;BME280;60683;51.730;8.762;2023-07-20T06:57:29;100213.31;;;15.77;84.63
72640;BME280;60683;51.730;8.762;2023-07-20T06:59:58;100214.41;;;15.76;84.57
72640;BME280;60683;51.730;8.762;2023-07-20T07:02:25;100213.19;;;15.51;86.04
72640;BME280;60683;51.730;8.762;2023-07-20T07:04:52;100230.38;;;15.25;85.58
72640;BME280;60683;51.730;8.762;2023-07-20T07:07:22;100227.13;;;15.23;87.86
72640;BME280;60683;51.730;8.762;2023-07-20T07:09:49;100232.44;;;15.08;87.84
72640;BME280;60683;51.730;8.762;2023-07-20T07:12:16;100234.38;;;15.17;88.72
72640;BME280;60683;51.730;8.762;2023-07-20T07:14:44;100235.13;;;15.08;88.09
72640;BME280;60683;51.730;8.762;2023-07-20T07:17:12;100238.94;;;15.07;88.05
72640;BME280;60683;51.730;8.762;2023-07-20T07:19:40;100244.63;;;15.10;88.01
72640;BME280;60683;51.730;8.762;2023-07-20T07:22:08;100245.81;;;15.24;87.95
72640;BME280;60683;51.730;8.762;2023-07-20T07:24:35;100247.41;;;15.20;87.29
72640;BME280;60683;51.730;8.762;2023-07-20T07:27:03;100238.13;;;15.53;87.11
72640;BME280;60683;51.730;8.762;2023-07-20T07:29:31;100230.69;;;15.81;87.03
72640;BME280;60683;51.730;8.762;2023-07-20T07:31:58;100230.75;;;16.01;85.41
72640;BME280;60683;51.730;8.762;2023-07-20T07:34:27;100242.69;;;16.05;83.06
72640;BME280;60683;51.730;8.762;2023-07-20T07:36:54;100243.75;;;15.94;82.39
72640;BME280;60683;51.730;8.762;2023-07-20T07:39:22;100244.44;;;15.59;82.95
72640;BME280;60683;51.730;8.762;2023-07-20T07:41:50;100253.28;;;15.49;82.06
72640;BME280;60683;51.730;8.762;2023-07-20T07:44:18;100261.59;;;15.38;83.93
72640;BME280;60683;51.730;8.762;2023-07-20T07:46:47;100259.44;;;15.40;83.80
72640;BME280;60683;51.730;8.762;2023-07-20T07:49:15;100259.22;;;15.46;83.20
72640;BME280;60683;51.730;8.762;2023-07-20T07:51:43;100262.66;;;15.79;82.28
72640;BME280;60683;51.730;8.762;2023-07-20T07:54:11;100258.41;;;16.03;82.44
72640;BME280;60683;51.730;8.762;2023-07-20T07:56:38;100261.44;;;16.22;79.54
72640;BME280;60683;51.730;8.762;2023-07-20T07:59:07;100264.94;;;16.17;76.58
72640;BME280;60683;51.730;8.762;2023-07-20T08:01:34;100266.69;;;16.69;77.42
72640;BME280;60683;51.730;8.762;2023-07-20T08:04:02;100267.25;;;16.81;74.27
72640;BME280;60683;51.730;8.762;2023-07-20T08:06:29;100275.41;;;16.81;75.04
72640;BME280;60683;51.730;8.762;2023-07-20T08:08:59;100272.97;;;17.00;76.61
72640;BME280;60683;51.730;8.762;2023-07-20T08:11:26;100275.13;;;16.78;76.60
72640;BME280;60683;51.730;8.762;2023-07-20T08:13:54;100275.59;;;16.44;76.81
72640;BME280;60683;51.730;8.762;2023-07-20T08:16:21;100279.06;;;16.19;74.87
72640;BME280;60683;51.730;8.762;2023-07-20T08:18:49;100276.63;;;16.18;77.37
72640;BME280;60683;51.730;8.762;2023-07-20T08:21:16;100277.59;;;15.86;74.66
72640;BME280;60683;51.730;8.762;2023-07-20T08:23:44;100278.38;;;15.77;75.28
72640;BME280;60683;51.730;8.762;2023-07-20T08:26:12;100283.59;;;15.94;75.91
72640;BME280;60683;51.730;8.762;2023-07-20T08:28:40;100281.25;;;16.22;75.03
72640;BME280;60683;51.730;8.762;2023-07-20T08:31:07;100279.41;;;16.64;71.01
72640;BME280;60683;51.730;8.762;2023-07-20T08:33:35;100278.66;;;16.99;69.46
72640;BME280;60683;51.730;8.762;2023-07-20T08:36:02;100277.81;;;17.18;71.72
72640;BME280;60683;51.730;8.762;2023-07-20T08:38:30;100279.75;;;16.87;70.92
72640;BME280;60683;51.730;8.762;2023-07-20T08:40:57;100285.41;;;16.61;70.84
72640;BME280;60683;51.730;8.762;2023-07-20T08:43:28;100291.06;;;16.39;70.48
72640;BME280;60683;51.730;8.762;2023-07-20T08:45:55;100290.56;;;16.67;70.32
72640;BME280;60683;51.730;8.762;2023-07-20T08:48:24;100292.25;;;16.94;67.99
72640;BME280;60683;51.730;8.762;2023-07-20T08:50:52;100294.94;;;16.94;68.33
72640;BME280;60683;51.730;8.762;2023-07-20T08:53:20;100285.19;;;17.13;66.74
72640;BME280;60683;51.730;8.762;2023-07-20T08:55:50;100279.16;;;17.16;65.11
72640;BME280;60683;51.730;8.762;2023-07-20T08:58:18;100283.00;;;17.05;63.99
72640;BME280;60683;51.730;8.762;2023-07-20T09:00:47;100297.63;;;17.29;63.96
72640;BME280;60683;51.730;8.762;2023-07-20T09:03:18;100294.63;;;17.46;63.18
72640;BME280;60683;51.730;8.762;2023-07-20T09:05:45;100294.38;;;17.37;62.15
72640;BME280;60683;51.730;8.762;2023-07-20T09:08:13;100288.56;;;17.79;63.75
72640;BME280;60683;51.730;8.762;2023-07-20T09:10:40;100281.22;;;17.85;62.45
72640;BME280;60683;51.730;8.762;2023-07-20T09:13:08;100278.41;;;18.05;59.94
72640;BME280;60683;51.730;8.762;2023-07-20T09:15:35;100295.78;;;18.19;61.19
72640;BME280;60683;51.730;8.762;2023-07-20T09:18:04;100284.56;;;18.26;61.30
72640;BME280;60683;51.730;8.762;2023-07-20T09:20:32;100276.56;;;18.45;61.17
72640;BME280;60683;51.730;8.762;2023-07-20T09:23:04;100284.06;;;18.19;58.67
72640;BME280;60683;51.730;8.762;2023-07-20T09:25:32;100287.50;;;18.35;58.55
72640;BME280;60683;51.730;8.762;2023-07-20T09:28:02;100279.94;;;18.22;58.82
72640;BME280;60683;51.730;8.762;2023-07-20T09:30:29;100288.34;;;18.30;58.90
72640;BME280;60683;51.730;8.762;2023-07-20T09:32:58;100289.72;;;18.28;56.95
72640;BME280;60683;51.730;8.762;2023-07-20T09:35:26;100291.84;;;18.36;56.78
72640;BME280;60683;51.730;8.762;2023-07-20T09:37:57;100287.13;;;18.07;59.31
72640;BME280;60683;51.730;8.762;2023-07-20T09:40:26;100280.31;;;18.10;60.12
72640;BME280;60683;51.730;8.762;2023-07-20T09:42:54;100281.72;;;17.97;57.91
72640;BME280;60683;51.730;8.762;2023-07-20T09:45:29;100282.38;;;18.23;59.64
72640;BME280;60683;51.730;8.762;2023-07-20T09:48:03;100282.91;;;18.30;60.85
72640;BME280;60683;51.730;8.762;2023-07-20T09:50:31;100290.19;;;18.40;56.19
72640;BME280;60683;51.730;8.762;2023-07-20T09:53:00;100285.91;;;18.29;54.89
72640;BME280;60683;51.730;8.762;2023-07-20T09:55:29;100269.78;;;18.37;55.85
72640;BME280;60683;51.730;8.762;2023-07-20T09:57:56;100279.75;;;18.57;55.50
72640;BME280;60683;51.730;8.762;2023-07-20T10:00:23;100288.69;;;18.68;54.45
72640;BME280;60683;51.730;8.762;2023-07-20T10:02:52;100285.81;;;18.88;53.63
72640;BME280;60683;51.730;8.762;2023-07-20T10:05:19;100282.09;;;19.08;57.55
72640;BME280;60683;51.730;8.762;2023-07-20T10:07:50;100279.34;;;19.13;54.68
72640;BME280;60683;51.730;8.762;2023-07-20T10:10:19;100282.75;;;18.95;55.61
72640;BME280;60683;51.730;8.762;2023-07-20T10:12:48;100272.78;;;19.14;55.57
72640;BME280;60683;51.730;8.762;2023-07-20T10:15:19;100277.22;;;19.34;53.65
72640;BME280;60683;51.730;8.762;2023-07-20T10:17:56;100280.75;;;19.63;53.78
72640;BME280;60683;51.730;8.762;2023-07-20T10:20:25;100278.31;;;19.62;53.36
72640;BME280;60683;51.730;8.762;2023-07-20T10:22:55;100274.56;;;20.00;53.48
72640;BME280;60683;51.730;8.762;2023-07-20T10:25:23;100265.16;;;20.30;54.18
72640;BME280;60683;51.730;8.762;2023-07-20T10:27:51;100280.56;;;19.78;49.94
72640;BME280;60683;51.730;8.762;2023-07-20T10:30:18;100278.13;;;19.77;50.17
72640;BME280;60683;51.730;8.762;2023-07-20T10:32:47;100264.94;;;19.84;51.08
72640;BME280;60683;51.730;8.762;2023-07-20T10:35:16;100262.72;;;20.10;51.36
72640;BME280;60683;51.730;8.762;2023-07-20T10:37:49;100265.94;;;19.93;52.24
72640;BME280;60683;51.730;8.762;2023-07-20T10:40:31;100262.06;;;20.18;53.07
72640;BME280;60683;51.730;8.762;2023-07-20T10:43:00;100272.94;;;19.99;53.55
72640;BME280;60683;51.730;8.762;2023-07-20T10:45:42;100271.44;;;19.88;52.99
72640;BME280;60683;51.730;8.762;2023-07-20T10:48:16;100275.34;;;20.25;49.25
72640;BME280;60683;51.730;8.762;2023-07-20T10:50:46;100265.06;;;20.35;44.83
72640;BME280;60683;51.730;8.762;2023-07-20T10:53:33;100260.91;;;20.62;46.17
72640;BME280;60683;51.730;8.762;2023-07-20T10:56:11;100267.88;;;20.30;46.58
72640;BME280;60683;51.730;8.762;2023-07-20T10:58:39;100272.47;;;20.35;46.87
72640;BME280;60683;51.730;8.762;2023-07-20T11:01:07;100258.09;;;20.48;47.29
72640;BME280;60683;51.730;8.762;2023-07-20T11:03:37;100254.78;;;20.70;48.51
72640;BME280;60683;51.730;8.762;2023-07-20T11:06:30;100260.94;;;21.40;48.37
72640;BME280;60683;51.730;8.762;2023-07-20T11:09:07;100252.50;;;21.92;45.56
72640;BME280;60683;51.730;8.762;2023-07-20T11:11:38;100254.16;;;22.06;45.27
72640;BME280;60683;51.730;8.762;2023-07-20T11:14:07;100251.91;;;22.44;41.27
72640;BME280;60683;51.730;8.762;2023-07-20T11:16:37;100256.69;;;22.17;45.16
72640;BME280;60683;51.730;8.762;2023-07-20T11:19:05;100250.69;;;21.87;43.12
72640;BME280;60683;51.730;8.762;2023-07-20T11:21:37;100239.28;;;22.35;40.18
72640;BME280;60683;51.730;8.762;2023-07-20T11:24:06;100247.78;;;21.70;42.18
72640;BME280;60683;51.730;8.762;2023-07-20T11:26:41;100248.78;;;22.01;42.21
72640;BME280;60683;51.730;8.762;2023-07-20T11:29:09;100251.91;;;21.26;44.04
72640;BME280;60683;51.730;8.762;2023-07-20T11:31:37;100249.09;;;20.99;43.76
72640;BME280;60683;51.730;8.762;2023-07-20T11:34:05;100245.72;;;21.34;44.57
72640;BME280;60683;51.730;8.762;2023-07-20T11:36:33;100240.25;;;21.89;42.79
72640;BME280;60683;51.730;8.762;2023-07-20T11:39:01;100243.72;;;22.89;41.75
72640;BME280;60683;51.730;8.762;2023-07-20T11:41:31;100238.41;;;23.15;39.80
72640;BME280;60683;51.730;8.762;2023-07-20T11:44:00;100235.56;;;22.98;38.68
72640;BME280;60683;51.730;8.762;2023-07-20T11:46:30;100230.03;;;22.89;39.33
72640;BME280;60683;51.730;8.762;2023-07-20T11:48:57;100228.34;;;22.35;40.80
72640;BME280;60683;51.730;8.762;2023-07-20T11:51:27;100225.72;;;22.30;39.82
72640;BME280;60683;51.730;8.762;2023-07-20T11:53:56;100227.53;;;22.34;40.34
72640;BME280;60683;51.730;8.762;2023-07-20T11:56:25;100231.31;;;21.97;43.35
72640;BME280;60683;51.730;8.762;2023-07-20T11:58:56;100228.94;;;21.82;43.33
72640;BME280;60683;51.730;8.762;2023-07-20T12:01:29;100219.97;;;22.18;39.09
72640;BME280;60683;51.730;8.762;2023-07-20T12:03:59;100216.63;;;22.88;38.78
72640;BME280;60683;51.730;8.762;2023-07-20T12:06:28;100203.34;;;23.43;37.93
72640;BME280;60683;51.730;8.762;2023-07-20T12:08:57;100200.69;;;24.26;36.69
72640;BME280;60683;51.730;8.762;2023-07-20T12:11:32;100204.84;;;24.23;35.80
72640;BME280;60683;51.730;8.762;2023-07-20T12:14:00;100195.16;;;24.52;34.87
72640;BME280;60683;51.730;8.762;2023-07-20T12:16:30;100212.09;;;24.10;35.57
72640;BME280;60683;51.730;8.762;2023-07-20T12:19:01;100217.19;;;23.69;38.98
72640;BME280;60683;51.730;8.762;2023-07-20T12:21:29;100214.78;;;23.28;39.18
72640;BME280;60683;51.730;8.762;2023-07-20T12:23:58;100207.44;;;23.15;38.09
72640;BME280;60683;51.730;8.762;2023-07-20T12:26:26;100200.03;;;24.37;36.44
72640;BME280;60683;51.730;8.762;2023-07-20T12:28:56;100193.50;;;24.77;34.93
72640;BME280;60683;51.730;8.762;2023-07-20T12:31:24;100188.19;;;24.71;33.27
72640;BME280;60683;51.730;8.762;2023-07-20T12:33:54;100200.03;;;24.37;33.63
72640;BME280;60683;51.730;8.762;2023-07-20T12:36:22;100207.06;;;23.38;36.21
72640;BME280;60683;51.730;8.762;2023-07-20T12:38:50;100201.13;;;24.45;36.29
72640;BME280;60683;51.730;8.762;2023-07-20T12:41:17;100198.00;;;23.77;36.38
72640;BME280;60683;51.730;8.762;2023-07-20T12:43:46;100188.69;;;24.48;36.32
72640;BME280;60683;51.730;8.762;2023-07-20T12:46:13;100189.97;;;24.24;35.10
72640;BME280;60683;51.730;8.762;2023-07-20T12:48:41;100186.44;;;25.22;32.15
72640;BME280;60683;51.730;8.762;2023-07-20T12:51:11;100171.78;;;25.01;34.25
72640;BME280;60683;51.730;8.762;2023-07-20T12:53:39;100185.56;;;24.84;34.57
72640;BME280;60683;51.730;8.762;2023-07-20T12:56:06;100185.84;;;25.08;35.02
72640;BME280;60683;51.730;8.762;2023-07-20T12:58:34;100177.59;;;25.08;35.06